Time;durP1;ratioP1;P1;durP2;ratioP2;P2;SDS_P1;SDS_P2;PMS_P1;PMS_P2;Temp;Humidity;BMP_temperature;BMP_pressure;BME280_temperature;BME280_humidity;BME280_pressure;Samples;Min_cycle;Max_cycle;Signal;HPM_P1;HPM_P2
2022/01/17 00:01:52;;;;;;;64.05;29.88;;;;;;;5.85;87.18;102995.06;5030079;28;20496;-69
2022/01/17 00:04:20;;;;;;;56.35;26.65;;;;;;;5.85;86.94;103000.31;5026442;28;20065;-69
2022/01/17 00:06:48;;;;;;;49.78;26.98;;;;;;;5.83;87.26;103004.66;5031566;28;20054;-73
2022/01/17 00:09:15;;;;;;;65.57;29.10;;;;;;;5.82;87.24;103013.34;5033781;28;20509;-72
2022/01/17 00:11:45;;;;;;;58.13;27.70;;;;;;;5.81;87.22;103008.97;5033509;28;20042;-74
2022/01/17 00:14:16;;;;;;;55.03;27.05;;;;;;;5.81;87.24;103024.66;5033356;28;20053;-73
2022/01/17 00:16:53;;;;;;;57.78;26.77;;;;;;;5.82;87.24;103009.81;5035547;28;20046;-71
2022/01/17 00:21:51;;;;;;;57.58;27.52;;;;;;;5.82;87.29;103008.09;5033964;28;20065;-75
2022/01/17 00:24:20;;;;;;;60.78;26.73;;;;;;;5.83;87.29;103003.75;5029903;28;20034;-75
2022/01/17 00:26:47;;;;;;;52.20;25.60;;;;;;;5.83;87.26;102996.78;5029785;28;20092;-71
2022/01/17 00:29:15;;;;;;;55.72;27.08;;;;;;;5.82;87.37;103002.88;5029869;28;20408;-69
2022/01/17 00:31:42;;;;;;;51.17;25.75;;;;;;;5.83;87.43;103001.13;5036297;28;20487;-70
2022/01/17 00:34:09;;;;;;;52.42;26.45;;;;;;;5.84;87.26;102995.94;5034367;28;20476;-68
2022/01/17 00:36:36;;;;;;;55.45;25.35;;;;;;;5.84;87.33;102995.94;5040957;28;20042;-71
2022/01/17 00:39:03;;;;;;;53.85;26.48;;;;;;;5.84;87.22;102987.19;5034975;28;20058;-69
2022/01/17 00:41:30;;;;;;;51.35;26.17;;;;;;;5.83;87.25;102993.28;5034306;28;20496;-67
2022/01/17 00:43:58;;;;;;;49.88;24.25;;;;;;;5.82;87.21;102997.63;5026555;28;20044;-68
2022/01/17 00:46:25;;;;;;;52.22;26.52;;;;;;;5.85;87.22;102991.59;5026414;28;20038;-67
2022/01/17 00:48:52;;;;;;;48.40;23.92;;;;;;;5.85;87.09;102995.06;5031797;28;20045;-68
2022/01/17 00:51:21;;;;;;;51.10;25.35;;;;;;;5.84;87.06;102995.94;5028532;28;20050;-70
2022/01/17 00:53:48;;;;;;;52.45;23.95;;;;;;;5.85;87.09;103005.53;5022736;28;20638;-69
2022/01/17 00:56:18;;;;;;;45.42;23.90;;;;;;;5.85;87.24;103007.28;5030670;28;20560;-70
2022/01/17 00:58:46;;;;;;;44.85;24.13;;;;;;;5.84;86.96;103016.91;5025373;28;20042;-69
2022/01/17 01:01:13;;;;;;;47.38;23.60;;;;;;;5.84;87.19;103016.91;5031296;28;20042;-66
2022/01/17 01:03:40;;;;;;;45.15;22.35;;;;;;;5.83;87.05;103019.44;5024563;28;20038;-68
2022/01/17 01:06:08;;;;;;;47.40;22.60;;;;;;;5.84;87.00;103023.84;5028397;28;20094;-70
2022/01/17 01:08:35;;;;;;;43.00;22.40;;;;;;;5.82;86.97;103021.19;5036049;28;20057;-69
2022/01/17 01:11:02;;;;;;;40.97;22.38;;;;;;;5.82;87.07;103023.81;5028933;28;20041;-69
2022/01/17 01:13:30;;;;;;;38.33;22.13;;;;;;;5.81;86.98;103022.03;5027553;28;20057;-70
2022/01/17 01:18:39;;;;;;;50.15;22.58;;;;;;;5.82;87.02;103008.09;5025599;28;20065;-69
2022/01/17 01:29:15;;;;;;;39.58;19.80;;;;;;;5.83;87.16;103030.81;5029970;28;20061;-71
2022/01/17 01:31:50;;;;;;;40.35;20.40;;;;;;;5.85;87.04;103028.22;5027256;28;20049;-70
2022/01/17 01:34:21;;;;;;;41.88;20.02;;;;;;;5.85;86.79;103015.16;5025012;28;20046;-70
2022/01/17 01:36:49;;;;;;;36.60;19.92;;;;;;;5.84;86.83;103035.22;5030058;28;20493;-70
2022/01/17 01:39:22;;;;;;;42.65;21.08;;;;;;;5.85;86.87;103033.47;5025042;28;20104;-70
2022/01/17 01:41:51;;;;;;;42.30;19.30;;;;;;;5.84;86.80;103043.06;5025134;28;20046;-69
2022/01/17 01:44:21;;;;;;;40.00;19.88;;;;;;;5.86;86.93;103037.88;5028800;28;20050;-70
2022/01/17 01:46:52;;;;;;;38.80;18.90;;;;;;;5.85;86.83;103031.72;5030753;28;20501;-69
2022/01/17 01:49:22;;;;;;;40.33;18.30;;;;;;;5.85;86.97;103029.09;5034078;28;20536;-70
2022/01/17 01:51:50;;;;;;;30.92;16.98;;;;;;;5.85;86.75;103025.63;5034784;28;20053;-70
2022/01/17 01:54:18;;;;;;;36.97;17.02;;;;;;;5.85;86.83;103034.34;5030340;28;20733;-69
2022/01/17 01:56:48;;;;;;;33.17;16.02;;;;;;;5.88;86.49;103034.44;5034813;28;20044;-69
2022/01/17 01:59:20;;;;;;;31.42;15.98;;;;;;;5.85;86.44;103026.50;5029441;28;20483;-69
2022/01/17 02:01:49;;;;;;;32.85;15.73;;;;;;;5.84;86.37;103024.75;5029487;28;22126;-70
2022/01/17 02:04:17;;;;;;;32.22;15.68;;;;;;;5.83;86.32;103033.44;5027227;28;20612;-71
2022/01/17 02:06:44;;;;;;;36.78;15.63;;;;;;;5.82;86.71;103039.53;5028245;28;20046;-69
2022/01/17 02:09:11;;;;;;;26.73;14.00;;;;;;;5.85;86.46;103043.94;5025233;28;20101;-69
2022/01/17 02:11:38;;;;;;;24.85;14.43;;;;;;;5.84;86.44;103037.84;5024914;28;20085;-68
2022/01/17 02:14:06;;;;;;;35.33;14.60;;;;;;;5.86;86.55;103043.09;5023634;28;20117;-70
2022/01/17 02:16:33;;;;;;;27.83;14.23;;;;;;;5.87;86.36;103035.28;5024621;28;20038;-69
2022/01/17 02:19:00;;;;;;;28.50;14.18;;;;;;;5.88;86.34;103025.69;5023687;28;20519;-71
2022/01/17 02:21:45;;;;;;;29.95;13.73;;;;;;;5.88;86.37;103023.09;5042190;28;20092;-70
2022/01/17 02:24:16;;;;;;;30.73;13.70;;;;;;;5.87;86.37;103021.31;5031116;28;20038;-71
2022/01/17 02:26:45;;;;;;;25.10;13.48;;;;;;;5.87;86.16;103018.69;5030894;28;20035;-69
2022/01/17 02:29:13;;;;;;;24.98;13.57;;;;;;;5.87;86.28;103016.94;5026112;28;20050;-69
2022/01/17 02:31:43;;;;;;;23.58;12.35;;;;;;;5.88;86.11;103020.47;5022454;28;20038;-68
2022/01/17 02:34:11;;;;;;;26.83;11.23;;;;;;;5.87;86.07;103032.66;5026918;28;20038;-66
2022/01/17 02:36:40;;;;;;;23.25;10.93;;;;;;;5.87;85.92;103032.66;5038323;28;20069;-69
2022/01/17 02:39:07;;;;;;;22.60;11.93;;;;;;;5.86;85.93;103038.72;5022811;28;20756;-69
2022/01/17 02:41:39;;;;;;;23.42;10.40;;;;;;;5.88;85.69;103041.41;5027579;28;20053;-70
2022/01/17 02:44:07;;;;;;;23.00;10.15;;;;;;;5.87;85.63;103042.25;5027259;28;20109;-70
2022/01/17 02:46:35;;;;;;;20.52;10.13;;;;;;;5.83;85.58;103036.06;5031880;28;20042;-71
2022/01/17 02:49:05;;;;;;;23.45;9.75;;;;;;;5.79;85.21;103043.81;5029871;28;20092;-70
2022/01/17 02:51:33;;;;;;;19.70;9.85;;;;;;;5.73;84.93;103034.94;5040395;28;20046;-71
2022/01/17 02:54:02;;;;;;;23.20;11.23;;;;;;;5.67;85.31;103029.56;5030342;28;20046;-70
2022/01/17 02:56:29;;;;;;;21.08;10.75;;;;;;;5.62;85.21;103030.28;5029709;28;20042;-67
2022/01/17 02:58:56;;;;;;;25.55;11.70;;;;;;;5.56;85.30;103025.78;5029071;28;20123;-70
2022/01/17 03:01:27;;;;;;;24.17;11.35;;;;;;;5.52;85.66;103029.16;5032144;28;20069;-71
2022/01/17 03:03:56;;;;;;;21.42;10.63;;;;;;;5.51;85.39;103037.84;5040389;28;20072;-68
2022/01/17 03:06:25;;;;;;;25.73;11.07;;;;;;;5.49;85.50;103023.88;5036217;28;20519;-69
2022/01/17 03:08:53;;;;;;;22.30;11.15;;;;;;;5.44;85.46;103015.91;5035805;28;20096;-71
2022/01/17 03:11:24;;;;;;;26.10;11.07;;;;;;;5.36;85.34;103018.31;5036845;28;20054;-71
2022/01/17 03:13:52;;;;;;;20.45;9.82;;;;;;;5.28;85.47;103019.84;5028666;28;20068;-70
2022/01/17 03:16:34;;;;;;;24.05;10.25;;;;;;;5.20;85.53;103024.84;5026510;28;20042;-71
2022/01/17 03:19:02;;;;;;;19.55;9.70;;;;;;;5.17;85.52;103035.22;5029115;28;20100;-66
2022/01/17 03:21:32;;;;;;;18.75;8.43;;;;;;;5.16;85.16;103029.97;5043479;28;20042;-72
2022/01/17 03:23:59;;;;;;;24.98;10.07;;;;;;;5.20;85.17;103039.63;5029048;28;20034;-65
2022/01/17 03:26:29;;;;;;;24.58;9.98;;;;;;;5.22;85.03;103043.19;5034038;28;20038;-68
2022/01/17 03:29:00;;;;;;;28.58;10.20;;;;;;;5.22;85.06;103035.34;5031455;28;20491;-70
2022/01/17 03:31:27;;;;;;;19.77;8.85;;;;;;;5.23;84.83;103035.41;5026094;28;20100;-68
2022/01/17 03:33:55;;;;;;;17.38;8.18;;;;;;;5.23;84.28;103040.63;5027242;28;20523;-70
2022/01/17 03:36:21;;;;;;;25.83;8.75;;;;;;;5.21;83.90;103050.16;5030288;28;20041;-69
2022/01/17 03:38:50;;;;;;;18.13;7.38;;;;;;;5.22;83.46;103045.81;5027645;28;20054;-70
2022/01/17 03:41:17;;;;;;;16.77;6.65;;;;;;;5.17;83.30;103039.59;5027958;28;20038;-69
2022/01/17 03:43:44;;;;;;;17.42;6.18;;;;;;;5.10;83.40;103023.69;5025671;28;20050;-68
2022/01/17 03:46:12;;;;;;;23.55;5.72;;;;;;;5.02;83.48;103019.13;5029515;28;20468;-66
2022/01/17 03:48:40;;;;;;;16.23;5.03;;;;;;;4.95;83.37;103024.16;5028437;28;20045;-68
2022/01/17 03:51:07;;;;;;;13.20;4.72;;;;;;;4.87;83.45;103017.84;5024702;28;20057;-67
2022/01/17 03:53:34;;;;;;;14.30;4.63;;;;;;;4.80;83.28;103028.97;5042442;28;20477;-67
2022/01/17 03:56:01;;;;;;;16.20;4.50;;;;;;;4.73;83.69;103029.66;5026784;28;20042;-69
2022/01/17 03:58:29;;;;;;;10.40;3.60;;;;;;;4.66;83.34;103034.66;5026478;28;20053;-70
2022/01/17 04:00:58;;;;;;;9.98;3.50;;;;;;;4.62;82.82;103048.50;5033243;28;20129;-69
2022/01/17 04:03:27;;;;;;;12.88;3.65;;;;;;;4.58;82.53;103057.06;5041498;28;20091;-71
2022/01/17 04:05:55;;;;;;;12.73;3.45;;;;;;;4.53;82.75;103068.22;5034735;28;20041;-70
2022/01/17 04:08:22;;;;;;;14.40;3.33;;;;;;;4.46;82.75;103065.44;5029566;28;20088;-69
2022/01/17 04:10:49;;;;;;;10.57;2.70;;;;;;;4.39;82.85;103066.06;5040297;28;20452;-71
2022/01/17 04:13:17;;;;;;;11.45;3.08;;;;;;;4.34;83.12;103065.06;5032517;28;20189;-69
2022/01/17 04:15:44;;;;;;;11.85;2.80;;;;;;;4.28;83.33;103055.28;5034274;28;20042;-68
2022/01/17 04:18:12;;;;;;;10.57;2.88;;;;;;;4.25;83.56;103063.03;5033689;28;20121;-69
2022/01/17 04:20:41;;;;;;;11.02;3.50;;;;;;;4.21;83.65;103053.34;5036624;28;20132;-72
2022/01/17 04:23:11;;;;;;;18.65;4.35;;;;;;;4.18;83.91;103063.69;5036744;28;20104;-70
2022/01/17 04:25:41;;;;;;;16.85;5.22;;;;;;;4.15;83.82;103069.69;5036689;28;20038;-69
2022/01/17 04:28:12;;;;;;;14.88;5.05;;;;;;;4.09;83.96;103064.25;5051507;28;20064;-70
2022/01/17 04:30:41;;;;;;;15.10;6.10;;;;;;;4.05;84.21;103059.78;5035549;28;20034;-70
2022/01/17 04:33:09;;;;;;;20.10;6.00;;;;;;;4.02;84.30;103054.47;5031289;28;20042;-69
2022/01/17 04:35:37;;;;;;;15.57;5.50;;;;;;;3.99;84.22;103051.75;5025031;28;20077;-70
2022/01/17 04:38:08;;;;;;;16.15;5.07;;;;;;;3.96;84.32;103046.44;5027990;28;20042;-70
2022/01/17 04:40:38;;;;;;;16.27;5.55;;;;;;;3.94;84.34;103050.72;5029929;28;20134;-70
2022/01/17 04:45:47;;;;;;;16.50;4.88;;;;;;;3.87;84.21;103068.78;5022901;28;20050;-68
2022/01/17 04:48:14;;;;;;;14.23;5.03;;;;;;;3.86;84.25;103071.34;5028033;28;20583;-71
2022/01/17 04:50:41;;;;;;;11.35;4.97;;;;;;;3.85;84.53;103082.59;5028359;28;20493;-69
2022/01/17 04:53:11;;;;;;;15.75;5.32;;;;;;;3.87;84.33;103087.03;5025843;28;20050;-69
2022/01/17 04:55:38;;;;;;;12.60;5.10;;;;;;;3.94;84.50;103095.97;5026770;28;20122;-70
2022/01/17 04:58:06;;;;;;;16.38;5.35;;;;;;;3.99;84.25;103101.34;5025323;28;20046;-70
2022/01/17 05:00:33;;;;;;;18.98;5.68;;;;;;;4.03;84.35;103105.84;5026247;28;20050;-70
2022/01/17 05:03:00;;;;;;;17.83;5.72;;;;;;;4.07;84.24;103114.66;5024132;28;20042;-70
2022/01/17 05:05:27;;;;;;;10.88;5.35;;;;;;;4.10;84.45;103115.63;5024840;28;20041;-70
2022/01/17 05:07:54;;;;;;;17.48;5.80;;;;;;;4.14;84.30;103111.41;5042437;28;20042;-68
2022/01/17 05:10:22;;;;;;;16.23;5.88;;;;;;;4.18;84.43;103105.44;5026005;28;20042;-71
2022/01/17 05:12:51;;;;;;;15.80;5.68;;;;;;;4.22;84.40;103098.59;5027060;28;20038;-68
2022/01/17 05:15:33;;;;;;;18.15;5.90;;;;;;;4.25;84.39;103098.72;5033231;28;20144;-69
2022/01/17 05:18:13;;;;;;;15.15;6.00;;;;;;;4.27;84.27;103092.69;5026824;28;20046;-68
2022/01/17 05:20:42;;;;;;;15.52;5.55;;;;;;;4.27;83.90;103097.03;5028083;28;20042;-70
2022/01/17 05:23:09;;;;;;;17.30;5.82;;;;;;;4.28;84.14;103098.78;5026764;28;20527;-70
2022/01/17 05:25:37;;;;;;;26.27;6.28;;;;;;;4.29;84.17;103101.47;5025321;28;20050;-70
2022/01/17 05:28:05;;;;;;;18.55;7.13;;;;;;;4.31;84.12;103104.13;5028285;28;20045;-70
2022/01/17 05:30:32;;;;;;;20.23;6.60;;;;;;;4.31;83.97;103104.13;5030748;28;20050;-67
2022/01/17 05:33:01;;;;;;;18.13;6.25;;;;;;;4.30;84.08;103104.94;5034402;28;20042;-67
2022/01/17 05:35:28;;;;;;;14.88;6.65;;;;;;;4.26;84.17;103109.19;5030352;28;20378;-67
2022/01/17 05:37:55;;;;;;;20.73;7.00;;;;;;;4.25;84.13;103109.16;5026084;28;20042;-66
2022/01/17 05:40:22;;;;;;;16.50;6.75;;;;;;;4.19;84.01;103110.72;5019369;28;20505;-67
2022/01/17 05:42:49;;;;;;;22.75;7.88;;;;;;;4.12;84.31;103106.13;5029477;28;20512;-70
2022/01/17 05:45:17;;;;;;;22.17;6.97;;;;;;;4.06;84.44;103102.44;5028923;28;20064;-71
2022/01/17 05:47:46;;;;;;;24.85;8.57;;;;;;;4.03;84.89;103096.25;5038917;28;20049;-70
2022/01/17 05:50:14;;;;;;;21.30;8.13;;;;;;;4.01;84.83;103097.06;5038643;28;20042;-72
2022/01/17 05:52:43;;;;;;;26.83;10.02;;;;;;;3.99;84.88;103088.28;5030171;28;20492;-72
2022/01/17 05:55:14;;;;;;;28.27;10.20;;;;;;;3.93;85.00;103085.47;5032390;28;20041;-68
2022/01/17 05:57:42;;;;;;;26.67;11.75;;;;;;;3.88;85.17;103080.13;5034589;28;20084;-69
2022/01/17 06:00:14;;;;;;;21.55;9.00;;;;;;;3.87;85.36;103076.59;5033565;28;20045;-68
2022/01/17 06:02:42;;;;;;;19.77;6.80;;;;;;;3.89;85.53;103079.28;5039816;28;20046;-71
2022/01/17 06:05:12;;;;;;;17.88;6.50;;;;;;;3.94;85.52;103090.75;5026444;28;20112;-69
2022/01/17 06:07:40;;;;;;;16.13;6.03;;;;;;;3.96;85.44;103099.53;5035674;28;20045;-73
2022/01/17 06:10:07;;;;;;;13.55;5.50;;;;;;;3.94;85.43;103085.53;5033992;28;20568;-71
2022/01/17 06:12:35;;;;;;;19.30;6.22;;;;;;;3.98;85.80;103095.25;5034056;28;20045;-71
2022/01/17 06:15:04;;;;;;;13.88;4.88;;;;;;;3.99;85.46;103088.28;5034758;28;20050;-70
2022/01/17 06:17:31;;;;;;;14.88;4.93;;;;;;;3.97;85.42;103106.50;5033341;28;20046;-66
2022/01/17 06:19:59;;;;;;;9.80;4.03;;;;;;;3.93;85.47;103103.75;5029825;28;20049;-71
2022/01/17 06:22:26;;;;;;;15.82;5.60;;;;;;;3.94;85.56;103106.41;5035549;28;20076;-71
2022/01/17 06:24:53;;;;;;;14.82;4.70;;;;;;;3.96;85.59;103103.88;5036435;28;20056;-70
2022/01/17 06:27:21;;;;;;;15.73;5.20;;;;;;;3.97;85.59;103127.41;5028795;28;20534;-67
2022/01/17 06:29:48;;;;;;;10.43;4.53;;;;;;;3.97;85.43;103118.69;5036552;28;20080;-69
2022/01/17 06:32:15;;;;;;;19.13;5.35;;;;;;;3.96;85.49;103122.13;5036360;28;20041;-65
2022/01/17 06:35:04;;;;;;;18.13;5.60;;;;;;;3.92;85.34;103115.91;5034988;28;20159;-70
2022/01/17 06:37:32;;;;;;;9.80;4.47;;;;;;;3.86;85.35;103110.47;5036340;28;20046;-69
2022/01/17 06:39:59;;;;;;;16.85;5.75;;;;;;;3.88;85.57;103108.81;5036303;28;20073;-70
2022/01/17 06:42:26;;;;;;;18.33;5.13;;;;;;;3.87;85.44;103107.03;5036119;28;20094;-71
2022/01/17 06:44:53;;;;;;;13.73;5.25;;;;;;;3.85;85.52;103104.41;5035548;28;20037;-70
2022/01/17 06:47:20;;;;;;;14.88;5.60;;;;;;;3.84;85.51;103106.94;5036340;28;20046;-71
2022/01/17 06:49:48;;;;;;;17.70;6.22;;;;;;;3.80;85.68;103099.84;5035859;28;20042;-71
2022/01/17 06:52:15;;;;;;;12.93;5.70;;;;;;;3.76;85.73;103108.41;5034446;28;20045;-71
2022/01/17 06:54:42;;;;;;;17.77;6.63;;;;;;;3.76;86.16;103122.34;5033273;28;20038;-72
2022/01/17 06:57:09;;;;;;;18.17;6.53;;;;;;;3.81;86.13;103131.19;5031848;28;20101;-72
2022/01/17 06:59:36;;;;;;;17.55;6.40;;;;;;;3.82;86.19;103132.06;5037222;28;20053;-71
2022/01/17 07:02:04;;;;;;;16.40;6.53;;;;;;;3.84;86.22;103143.47;5036255;28;20042;-65
2022/01/17 07:04:31;;;;;;;26.90;8.05;;;;;;;3.86;86.30;103152.25;5032885;28;20045;-65
2022/01/17 07:06:58;;;;;;;21.42;7.95;;;;;;;3.90;86.43;103148.91;5035837;28;20073;-65
2022/01/17 07:09:25;;;;;;;22.05;8.35;;;;;;;3.92;86.28;103172.44;5033622;28;21125;-70
2022/01/17 07:11:52;;;;;;;17.83;8.65;;;;;;;3.92;86.26;103175.94;5036077;28;20042;-72
2022/01/17 07:14:19;;;;;;;18.95;7.95;;;;;;;3.94;86.35;103156.00;5034135;28;20048;-65
2022/01/17 07:16:46;;;;;;;24.40;8.98;;;;;;;3.97;86.03;103150.88;5035932;28;20117;-69
2022/01/17 07:19:13;;;;;;;21.52;9.05;;;;;;;3.99;85.97;103151.84;5035305;28;20048;-69
2022/01/17 07:21:40;;;;;;;22.85;9.02;;;;;;;3.99;86.31;103148.31;5034616;28;20046;-71
2022/01/17 07:24:27;;;;;;;24.80;9.25;;;;;;;3.98;86.09;103144.84;5033876;28;20045;-72
2022/01/17 07:26:55;;;;;;;28.65;9.18;;;;;;;3.95;86.29;103138.63;5033700;28;20045;-73
2022/01/17 07:29:24;;;;;;;20.77;9.73;;;;;;;3.96;86.49;103129.97;5035036;28;20129;-70
2022/01/17 07:31:56;;;;;;;25.63;9.75;;;;;;;3.97;86.47;103131.75;5032918;28;20119;-71
2022/01/17 07:34:25;;;;;;;20.88;9.77;;;;;;;3.97;86.61;103136.97;5054330;28;20519;-71
2022/01/17 07:36:52;;;;;;;25.90;10.15;;;;;;;3.98;86.55;103146.53;5012979;28;20053;-70
2022/01/17 07:39:20;;;;;;;27.83;10.40;;;;;;;3.98;86.59;103152.66;5033633;28;20125;-65
2022/01/17 07:41:47;;;;;;;26.48;10.55;;;;;;;3.99;86.62;103164.88;5034630;28;20041;-67
2022/01/17 07:44:24;;;;;;;24.13;10.65;;;;;;;4.01;86.76;103175.38;5034045;28;20051;-68
2022/01/17 07:46:57;;;;;;;24.27;11.20;;;;;;;4.04;86.91;103171.13;5034247;28;20038;-69
2022/01/17 07:49:26;;;;;;;25.08;10.82;;;;;;;4.08;87.07;103161.69;5036198;28;20100;-70
2022/01/17 07:52:04;;;;;;;26.38;10.88;;;;;;;4.13;87.11;103178.41;5033228;28;20030;-72
2022/01/17 07:54:43;;;;;;;23.73;11.07;;;;;;;4.19;87.07;103189.03;5032057;28;20108;-72
2022/01/17 07:57:14;;;;;;;25.08;11.40;;;;;;;4.21;86.96;103181.28;5035442;28;20026;-71
2022/01/17 07:59:46;;;;;;;26.45;11.98;;;;;;;4.24;86.99;103164.81;5034722;28;21406;-73
2022/01/17 08:02:13;;;;;;;23.00;10.82;;;;;;;4.27;86.62;103170.16;5035873;28;20064;-71
2022/01/17 08:04:41;;;;;;;26.20;12.00;;;;;;;4.30;86.77;103180.69;5024019;28;20049;-72
2022/01/17 08:07:09;;;;;;;26.92;12.32;;;;;;;4.34;86.78;103174.75;5034891;28;20189;-72
2022/01/17 08:09:36;;;;;;;25.65;11.75;;;;;;;4.38;86.82;103189.66;5031559;28;20148;-68
2022/01/17 08:12:10;;;;;;;22.95;12.07;;;;;;;4.41;86.69;103188.91;5031424;28;20060;-65
2022/01/17 08:14:40;;;;;;;23.35;11.68;;;;;;;4.42;86.78;103183.72;5033518;28;20511;-72
2022/01/17 08:17:07;;;;;;;26.95;12.15;;;;;;;4.43;86.79;103182.88;5031591;28;20052;-72
2022/01/17 08:19:38;;;;;;;25.40;12.55;;;;;;;4.47;86.70;103184.75;5031658;28;20969;-71
2022/01/17 08:22:06;;;;;;;25.15;12.18;;;;;;;4.50;86.80;103197.03;5032624;28;20752;-72
2022/01/17 08:24:35;;;;;;;25.05;12.52;;;;;;;4.53;86.79;103194.50;5031561;28;20133;-70
2022/01/17 08:27:03;;;;;;;23.83;11.85;;;;;;;4.57;86.75;103203.34;5029267;28;20030;-72
2022/01/17 08:29:30;;;;;;;28.70;12.93;;;;;;;4.62;86.70;103188.69;5033243;28;20125;-72
2022/01/17 08:32:00;;;;;;;31.33;13.93;;;;;;;4.68;86.61;103182.78;5032028;28;20428;-72
2022/01/17 08:34:27;;;;;;;28.67;12.57;;;;;;;4.72;86.48;103195.13;5034821;28;20041;-71
2022/01/17 08:36:54;;;;;;;27.13;12.05;;;;;;;4.75;86.45;103203.94;5018486;28;20520;-70
2022/01/17 08:39:23;;;;;;;27.73;12.32;;;;;;;4.78;86.46;103196.16;5039921;28;20517;-72
2022/01/17 08:41:52;;;;;;;23.80;12.27;;;;;;;4.80;86.58;103204.06;5031635;28;20045;-66
2022/01/17 08:44:20;;;;;;;31.02;12.77;;;;;;;4.83;86.56;103196.34;5030097;28;20038;-66
2022/01/17 08:46:47;;;;;;;30.45;13.55;;;;;;;4.87;86.33;103197.31;5033222;28;20049;-71
2022/01/17 08:49:16;;;;;;;27.55;13.32;;;;;;;4.89;86.26;103196.53;5030076;28;20065;-68
2022/01/17 08:51:48;;;;;;;25.05;12.13;;;;;;;4.94;86.30;103202.75;5028360;28;20117;-69
2022/01/17 08:54:16;;;;;;;26.00;12.60;;;;;;;4.97;86.25;103191.53;5025203;28;20880;-71
2022/01/17 08:56:43;;;;;;;26.02;12.75;;;;;;;5.02;85.93;103192.56;5042851;28;20053;-65
2022/01/17 08:59:10;;;;;;;28.13;13.13;;;;;;;5.07;85.88;103192.69;5029241;28;20112;-70
2022/01/17 09:01:38;;;;;;;29.70;12.55;;;;;;;5.11;85.61;103203.28;5032733;28;20057;-71
2022/01/17 09:04:15;;;;;;;27.65;13.32;;;;;;;5.19;85.64;103190.44;5030616;28;20479;-72
2022/01/17 09:06:44;;;;;;;25.67;12.93;;;;;;;5.27;85.25;103193.31;5037160;28;20038;-73
2022/01/17 09:09:11;;;;;;;26.98;12.45;;;;;;;5.31;85.09;103196.88;5033291;28;20719;-64
2022/01/17 09:11:38;;;;;;;30.08;12.70;;;;;;;5.37;85.15;103199.66;5029015;28;20097;-66
2022/01/17 09:14:06;;;;;;;29.42;12.43;;;;;;;5.43;84.90;103215.56;5029041;28;20127;-69
2022/01/17 09:16:35;;;;;;;28.48;12.35;;;;;;;5.44;84.82;103217.34;5030718;28;20041;-71
2022/01/17 09:19:07;;;;;;;31.25;12.65;;;;;;;5.49;84.70;103231.44;5021593;28;20042;-68
2022/01/17 09:21:34;;;;;;;24.40;12.18;;;;;;;5.50;84.51;103227.97;5031578;28;20057;-72
2022/01/17 09:24:02;;;;;;;26.90;12.05;;;;;;;5.57;84.58;103234.28;5029440;28;20129;-73
2022/01/17 09:26:30;;;;;;;33.20;11.85;;;;;;;5.58;84.54;103222.97;5029452;28;20046;-69
2022/01/17 09:29:06;;;;;;;27.48;12.15;;;;;;;5.54;84.50;103231.56;5030748;28;20142;-69
2022/01/17 09:31:43;;;;;;;27.45;12.57;;;;;;;5.56;84.58;103230.75;5029456;28;20054;-72
2022/01/17 09:34:11;;;;;;;27.30;11.45;;;;;;;5.58;84.38;103234.31;5023666;28;20042;-70
2022/01/17 09:36:39;;;;;;;28.25;11.85;;;;;;;5.59;84.43;103229.97;5028284;28;20044;-70
2022/01/17 09:39:10;;;;;;;28.98;11.55;;;;;;;5.61;84.46;103238.75;5014818;28;20044;-71
2022/01/17 09:41:40;;;;;;;27.90;12.07;;;;;;;5.63;84.40;103228.34;5032017;28;20128;-72
2022/01/17 09:44:09;;;;;;;21.88;11.63;;;;;;;5.64;84.44;103238.84;5031328;28;20046;-72
2022/01/17 09:46:42;;;;;;;27.70;11.60;;;;;;;5.68;84.48;103245.03;5031192;28;20050;-70
2022/01/17 09:49:22;;;;;;;29.10;11.98;;;;;;;5.73;84.12;103252.19;5030279;28;20063;-71
2022/01/17 09:54:59;;;;;;;25.17;11.40;;;;;;;5.73;83.96;103280.97;5028533;28;20033;-66
2022/01/17 09:57:32;;;;;;;25.42;9.68;;;;;;;5.74;83.90;103274.91;5022747;28;20042;-64
2022/01/17 10:00:04;;;;;;;29.60;11.75;;;;;;;5.74;84.08;103290.59;5043916;28;20050;-65
2022/01/17 10:02:41;;;;;;;26.23;10.88;;;;;;;5.77;83.93;103292.41;5029830;28;20084;-67
2022/01/17 10:05:14;;;;;;;20.92;11.05;;;;;;;5.77;84.15;103281.06;5044832;28;20049;-67
2022/01/17 10:08:01;;;;;;;29.33;11.30;;;;;;;5.77;84.06;103297.66;5028184;28;20070;-68
2022/01/17 10:10:50;;;;;;;21.25;10.27;;;;;;;5.78;83.93;103291.56;5024606;28;20088;-66
2022/01/17 10:13:32;;;;;;;25.50;10.55;;;;;;;5.80;83.95;103286.41;5028186;28;20042;-69
2022/01/17 10:16:11;;;;;;;26.75;10.07;;;;;;;5.81;83.81;103290.78;5029378;28;20038;-68
2022/01/17 10:18:53;;;;;;;20.42;8.27;;;;;;;5.80;83.96;103283.78;5029355;28;20038;-69
2022/01/17 10:21:51;;;;;;;23.25;10.13;;;;;;;5.82;83.87;103275.13;5022376;28;20049;-67
2022/01/17 10:24:43;;;;;;;26.85;9.45;;;;;;;5.85;83.86;103279.56;5029638;28;20472;-70
2022/01/17 10:27:27;;;;;;;24.25;8.85;;;;;;;5.89;83.65;103269.22;5027476;28;20042;-67
2022/01/17 10:35:41;;;;;;;22.67;8.43;;;;;;;6.02;83.36;103275.72;5024818;28;20050;-67
2022/01/17 10:38:22;;;;;;;22.90;9.35;;;;;;;6.01;83.40;103284.41;5025170;28;21497;-68
2022/01/17 10:40:58;;;;;;;29.85;9.60;;;;;;;6.04;83.34;103286.25;5021449;28;20058;-70
2022/01/17 10:43:35;;;;;;;;;;;;;;;6.08;83.15;103297.69;5028439;28;20069;-71
2022/01/17 10:46:21;;;;;;;25.40;9.27;;;;;;;6.10;83.25;103304.75;5028746;28;20008;-70
2022/01/17 10:48:56;;;;;;;26.27;9.52;;;;;;;6.14;83.29;103303.09;5031168;28;20053;-69
2022/01/17 10:51:35;;;;;;;26.63;8.90;;;;;;;6.15;83.22;103282.19;5031259;28;20049;-71
2022/01/17 10:54:14;;;;;;;19.00;8.65;;;;;;;6.19;83.11;103286.66;5028928;28;20046;-70
2022/01/17 10:56:56;;;;;;;24.67;8.18;;;;;;;6.23;83.16;103287.63;5030663;28;20885;-72
2022/01/17 10:59:31;;;;;;;23.85;8.68;;;;;;;6.29;83.16;103307.84;5026624;28;20045;-69
2022/01/17 11:01:59;;;;;;;25.98;7.72;;;;;;;6.32;83.15;103310.56;5030485;28;20045;-65
2022/01/17 11:04:39;;;;;;;27.27;7.85;;;;;;;6.37;82.93;103322.03;5033183;28;20046;-65
2022/01/17 11:07:09;;;;;;;26.05;7.35;;;;;;;6.44;82.66;103333.59;5030011;28;20049;-70
2022/01/17 11:09:47;;;;;;;23.85;7.13;;;;;;;6.48;82.40;103317.97;5027159;28;20505;-65
2022/01/17 11:12:18;;;;;;;18.92;6.05;;;;;;;6.47;82.25;103321.44;5034172;28;20092;-65
2022/01/17 11:14:47;;;;;;;21.33;5.82;;;;;;;6.49;82.53;103325.00;5038233;28;20113;-67
2022/01/17 11:17:37;;;;;;;16.50;5.40;;;;;;;6.54;82.21;103325.13;5029536;28;20045;-70
2022/01/17 11:20:08;;;;;;;31.55;7.38;;;;;;;6.59;81.92;103327.84;5032111;28;20062;-69
2022/01/17 11:22:42;;;;;;;27.42;5.97;;;;;;;6.62;82.08;103320.97;5035212;28;20038;-70
2022/01/17 11:25:30;;;;;;;20.13;5.30;;;;;;;6.65;81.63;103315.81;5032091;28;20152;-65
2022/01/17 11:28:00;;;;;;;20.83;5.35;;;;;;;6.65;81.93;103310.56;5033822;28;20053;-68
2022/01/17 11:30:28;;;;;;;27.98;6.80;;;;;;;6.68;81.89;103314.97;5032975;28;20044;-71
2022/01/17 11:32:57;;;;;;;22.73;5.82;;;;;;;6.76;81.66;103299.47;5033996;28;20038;-72
2022/01/17 11:35:25;;;;;;;25.90;6.05;;;;;;;6.81;81.44;103298.72;5033629;28;20053;-73
2022/01/17 11:37:59;;;;;;;23.40;5.70;;;;;;;6.82;81.57;103294.34;5033362;28;20042;-69
2022/01/17 11:40:34;;;;;;;18.23;5.20;;;;;;;6.83;81.39;103299.66;5031261;28;20060;-69
2022/01/17 11:43:17;;;;;;;21.55;5.30;;;;;;;6.84;81.54;103314.53;5032338;28;20042;-71
2022/01/17 11:45:47;;;;;;;20.33;5.25;;;;;;;6.87;81.44;103318.97;5033237;28;20177;-66
2022/01/17 11:48:30;;;;;;;21.65;5.43;;;;;;;6.93;81.44;103328.72;5028983;28;20542;-69
2022/01/17 11:51:12;;;;;;;18.02;4.72;;;;;;;6.95;81.40;103327.03;5033445;28;20038;-71
2022/01/17 11:53:44;;;;;;;23.92;4.95;;;;;;;6.99;81.47;103335.00;5032737;28;20049;-72
2022/01/17 11:56:35;;;;;;;17.25;4.68;;;;;;;7.04;81.37;103324.63;5030662;28;20046;-70
2022/01/17 11:59:43;;;;;;;24.63;5.47;;;;;;;7.11;81.38;103320.44;5031952;28;20579;-66
2022/01/17 12:02:33;;;;;;;23.75;5.20;;;;;;;7.11;81.06;103325.69;5026691;28;20128;-72